Georgetown, Delaware
Current Conditions -  °F | °C
As of 8:54 AM on Saturday 22 Nov 2014 (Local Time) from KGED Reporting Station
Clear Clear  
Wind Chill: -3°   Ceiling: Unl
Heat Index:   Visibility: 10mi
Dew Point: -8°   Wind: 5mph
Humidity: 54%   Direction: 200°SSW
Pressure: 30.55"   Gusts: NA
Location:  38.69°N, 75.39°W
Report Text: KGED 221354Z AUTO 20004KT 10SM CLR 00/M08 A3055 RMK AO2 SLP345 T00001083
Loading
Personal Weather Stations






























Interactive Weather Map New forecast layout! Learn more

10-Day Weather Forecast

Advertisements
Track Severe Weather on mobile